createdAt,value
2022-11-19T00:01:12.155Z,11.20
2022-11-19T00:03:39.563Z,10.68
2022-11-19T00:06:14.618Z,10.60
2022-11-19T00:08:41.169Z,11.48
2022-11-19T00:11:13.736Z,10.90
2022-11-19T00:13:41.664Z,10.70
2022-11-19T00:16:13.160Z,11.25
2022-11-19T00:18:40.499Z,9.80
2022-11-19T00:21:09.482Z,10.45
2022-11-19T00:23:36.870Z,10.32
2022-11-19T00:26:11.846Z,10.38
2022-11-19T00:28:39.049Z,10.23
2022-11-19T00:31:08.158Z,9.45
2022-11-19T00:33:35.193Z,9.52
2022-11-19T00:36:02.615Z,9.20
2022-11-19T00:38:30.012Z,10.45
2022-11-19T00:40:56.814Z,10.00
2022-11-19T00:43:41.977Z,8.65
2022-11-19T00:46:09.053Z,9.90
2022-11-19T00:48:35.719Z,8.70
2022-11-19T00:51:02.416Z,7.45
2022-11-19T00:53:28.972Z,8.38
2022-11-19T00:55:55.569Z,7.22
2022-11-19T00:58:22.075Z,7.65
2022-11-19T01:00:48.774Z,7.70
2022-11-19T01:03:15.322Z,6.47
2022-11-19T01:05:41.837Z,6.38
2022-11-19T01:08:08.358Z,6.35
2022-11-19T01:10:35.761Z,6.40
2022-11-19T01:13:20.976Z,5.78
2022-11-19T01:15:51.221Z,5.07
2022-11-19T01:18:18.229Z,6.13
2022-11-19T01:20:45.453Z,5.43
2022-11-19T01:23:12.047Z,6.32
2022-11-19T01:25:38.587Z,5.47
2022-11-19T01:28:05.397Z,5.60
2022-11-19T01:30:32.460Z,5.47
2022-11-19T01:32:59.130Z,4.65
2022-11-19T01:35:25.676Z,5.40
2022-11-19T01:37:52.905Z,5.43
2022-11-19T01:40:19.424Z,5.40
2022-11-19T01:42:53.724Z,5.28
2022-11-19T01:45:31.176Z,5.47
2022-11-19T01:48:01.978Z,4.95
2022-11-19T01:50:31.560Z,5.03
2022-11-19T01:52:58.423Z,5.18
2022-11-19T01:55:25.588Z,5.40
2022-11-19T01:57:56.803Z,5.05
2022-11-19T02:00:23.576Z,5.05
2022-11-19T02:02:50.274Z,4.78
2022-11-19T02:05:17.251Z,5.10
2022-11-19T02:07:48.241Z,4.82
2022-11-19T02:10:14.823Z,5.25
2022-11-19T02:12:56.474Z,5.38
2022-11-19T02:15:25.572Z,5.38
2022-11-19T02:18:10.502Z,4.93
2022-11-19T02:20:59.750Z,5.80
2022-11-19T02:23:47.867Z,5.60
2022-11-19T02:26:31.792Z,5.32
2022-11-19T02:29:28.931Z,5.05
2022-11-19T02:32:10.019Z,5.72
2022-11-19T02:34:48.697Z,5.55
2022-11-19T02:37:38.255Z,5.50
2022-11-19T02:40:09.866Z,5.30
2022-11-19T02:43:16.850Z,5.30
2022-11-19T02:45:47.137Z,5.13
2022-11-19T02:48:26.612Z,5.55
2022-11-19T02:50:55.445Z,5.38
2022-11-19T02:53:23.002Z,5.90
2022-11-19T02:56:08.503Z,5.75
2022-11-19T02:58:56.703Z,5.05
2022-11-19T03:01:42.424Z,5.40
2022-11-19T03:04:28.128Z,5.22
2022-11-19T03:06:56.174Z,5.45
2022-11-19T03:09:23.331Z,5.70
2022-11-19T03:11:57.747Z,5.38
2022-11-19T03:14:45.465Z,5.53
2022-11-19T03:17:25.946Z,5.30
2022-11-19T03:20:31.417Z,5.88
2022-11-19T03:23:09.183Z,5.25
2022-11-19T03:25:40.833Z,5.00
2022-11-19T03:28:12.010Z,5.55
2022-11-19T03:30:39.699Z,5.10
2022-11-19T03:33:10.487Z,5.10
2022-11-19T03:35:58.674Z,6.00
2022-11-19T03:38:29.766Z,5.03
2022-11-19T03:40:57.065Z,4.53
2022-11-19T03:43:27.120Z,5.18
2022-11-19T03:45:56.235Z,4.72
2022-11-19T03:48:23.346Z,5.93
2022-11-19T03:51:04.185Z,5.00
2022-11-19T03:53:30.754Z,5.00
2022-11-19T03:56:05.682Z,4.50
2022-11-19T03:58:38.334Z,5.03
2022-11-19T04:01:04.937Z,4.35
2022-11-19T04:03:31.539Z,4.93
2022-11-19T04:05:58.043Z,4.72
2022-11-19T04:08:24.542Z,5.03
2022-11-19T04:10:51.222Z,5.00
2022-11-19T04:13:17.767Z,4.70
2022-11-19T04:15:44.324Z,4.90
2022-11-19T04:18:10.824Z,5.03
2022-11-19T04:20:37.326Z,5.13
2022-11-19T04:23:03.873Z,4.50
2022-11-19T04:25:30.401Z,4.95
2022-11-19T04:27:56.892Z,5.15
2022-11-19T04:30:23.421Z,5.25
2022-11-19T04:32:49.959Z,4.63
2022-11-19T04:35:21.293Z,5.43
2022-11-19T04:37:48.695Z,4.53
2022-11-19T04:40:15.189Z,5.00
2022-11-19T04:42:41.804Z,5.00
2022-11-19T04:45:09.195Z,4.93
2022-11-19T04:47:35.733Z,4.43
2022-11-19T04:50:02.257Z,5.05
2022-11-19T04:52:28.738Z,5.03
2022-11-19T04:54:55.282Z,4.82
2022-11-19T04:57:21.796Z,5.30
2022-11-19T04:59:48.307Z,5.03
2022-11-19T05:02:14.854Z,4.65
2022-11-19T05:04:41.339Z,4.97
2022-11-19T05:07:07.911Z,5.40
2022-11-19T05:09:34.515Z,4.78
2022-11-19T05:12:01.026Z,5.43
2022-11-19T05:14:30.592Z,5.25
2022-11-19T05:16:57.305Z,5.55
2022-11-19T05:19:23.811Z,4.97
2022-11-19T05:21:50.311Z,5.65
2022-11-19T05:24:17.823Z,5.95
2022-11-19T05:26:44.327Z,5.78
2022-11-19T05:29:10.911Z,5.63
2022-11-19T05:31:37.464Z,6.28
2022-11-19T05:34:04.018Z,5.88
2022-11-19T05:36:30.500Z,6.10
2022-11-19T05:38:57.048Z,5.80
2022-11-19T05:41:23.632Z,6.30
2022-11-19T05:43:50.482Z,5.95
2022-11-19T05:46:17.036Z,5.85
2022-11-19T05:48:43.563Z,6.15
2022-11-19T05:51:15.860Z,6.50
2022-11-19T05:53:43.089Z,5.60
2022-11-19T05:56:10.094Z,6.32
2022-11-19T05:58:36.686Z,6.55
2022-11-19T06:01:03.965Z,6.28
2022-11-19T06:03:30.894Z,7.00
2022-11-19T06:05:57.395Z,6.97
2022-11-19T06:08:23.924Z,6.40
2022-11-19T06:10:50.446Z,7.20
2022-11-19T06:13:17.076Z,8.10
2022-11-19T06:15:43.555Z,8.25
2022-11-19T06:18:10.229Z,8.60
2022-11-19T06:20:36.740Z,7.75
2022-11-19T06:23:03.267Z,7.82
2022-11-19T06:25:29.841Z,7.22
2022-11-19T06:27:56.380Z,7.88
2022-11-19T06:30:22.898Z,7.40
2022-11-19T06:32:49.444Z,8.85
2022-11-19T06:35:15.946Z,8.68
2022-11-19T06:37:42.481Z,9.18
2022-11-19T06:40:09.550Z,9.45
2022-11-19T06:42:36.152Z,9.63
2022-11-19T06:45:04.769Z,9.38
2022-11-19T06:47:32.295Z,9.85
2022-11-19T06:49:58.786Z,9.10
2022-11-19T06:52:25.753Z,9.20
2022-11-19T06:54:52.291Z,9.30
2022-11-19T06:57:18.788Z,10.88
2022-11-19T06:59:45.298Z,8.75
2022-11-19T07:02:12.279Z,9.25
2022-11-19T07:04:39.001Z,9.10
2022-11-19T07:07:05.937Z,9.88
2022-11-19T07:09:32.648Z,9.23
2022-11-19T07:11:59.135Z,8.98
2022-11-19T07:14:25.687Z,9.77
2022-11-19T07:16:52.216Z,9.70
2022-11-19T07:19:19.456Z,9.45
2022-11-19T07:21:46.150Z,9.45
2022-11-19T07:24:13.091Z,9.48
2022-11-19T07:26:39.587Z,9.88
2022-11-19T07:29:07.297Z,9.27
2022-11-19T07:31:34.424Z,9.60
2022-11-19T07:34:00.992Z,8.93
2022-11-19T07:36:27.573Z,9.60
2022-11-19T07:38:54.123Z,10.10
2022-11-19T07:41:39.400Z,9.23
2022-11-19T07:44:06.181Z,8.48
2022-11-19T07:46:32.734Z,9.10
2022-11-19T07:48:59.350Z,9.55
2022-11-19T07:51:26.320Z,8.75
2022-11-19T07:53:52.875Z,9.55
2022-11-19T07:56:19.961Z,9.52
2022-11-19T07:58:46.954Z,8.95
2022-11-19T08:01:19.390Z,9.38
2022-11-19T08:03:50.600Z,9.75
2022-11-19T08:06:20.982Z,9.20
2022-11-19T08:08:47.735Z,8.80
2022-11-19T08:11:15.362Z,9.57
2022-11-19T08:13:42.134Z,9.93
2022-11-19T08:16:34.594Z,8.70
2022-11-19T08:19:02.563Z,8.32
2022-11-19T08:21:29.039Z,8.65
2022-11-19T08:23:55.598Z,8.95
2022-11-19T08:26:22.810Z,9.20
2022-11-19T08:28:49.342Z,9.02
2022-11-19T08:31:15.855Z,8.48
2022-11-19T08:33:42.405Z,8.52
2022-11-19T08:36:08.919Z,8.05
2022-11-19T08:38:38.661Z,8.63
2022-11-19T08:41:24.104Z,8.27
2022-11-19T08:43:50.665Z,8.68
2022-11-19T08:46:17.218Z,8.40
2022-11-19T08:48:44.407Z,7.88
2022-11-19T08:51:10.892Z,8.90
2022-11-19T08:53:37.442Z,7.72
2022-11-19T08:56:04.086Z,8.00
2022-11-19T08:58:30.646Z,7.47
2022-11-19T09:00:57.205Z,7.88
2022-11-19T09:03:23.770Z,7.72
2022-11-19T09:05:50.330Z,7.60
2022-11-19T09:08:16.865Z,8.35
2022-11-19T09:10:43.400Z,7.82
2022-11-19T09:13:09.931Z,8.20
2022-11-19T09:15:36.455Z,8.73
2022-11-19T09:18:02.965Z,8.00
2022-11-19T09:20:29.694Z,7.97
2022-11-19T09:22:56.214Z,7.47
2022-11-19T09:25:22.847Z,8.20
2022-11-19T09:27:49.460Z,8.50
2022-11-19T09:30:15.998Z,8.98
2022-11-19T09:32:42.515Z,8.18
2022-11-19T09:35:09.034Z,8.40
2022-11-19T09:37:36.147Z,8.57
2022-11-19T09:40:03.252Z,8.65
2022-11-19T09:43:13.934Z,7.88
2022-11-19T09:45:47.607Z,8.00
2022-11-19T09:48:41.614Z,9.13
2022-11-19T09:51:11.888Z,8.63
2022-11-19T09:54:01.978Z,8.85
2022-11-19T09:56:35.621Z,8.52
2022-11-19T09:59:10.271Z,8.70
2022-11-19T10:01:37.260Z,9.07
2022-11-19T10:04:04.273Z,8.63
2022-11-19T10:07:15.927Z,9.27
2022-11-19T10:10:12.028Z,8.77
2022-11-19T10:12:57.448Z,9.00
2022-11-19T10:15:37.606Z,8.75
2022-11-19T10:18:49.344Z,8.63
2022-11-19T10:21:46.127Z,7.70
2022-11-19T10:24:18.807Z,8.63
2022-11-19T10:26:51.261Z,7.88
2022-11-19T10:29:22.201Z,8.50
2022-11-19T10:31:52.048Z,7.95
2022-11-19T10:34:23.126Z,8.07
2022-11-19T10:37:01.878Z,8.52
2022-11-19T10:39:33.810Z,8.05
2022-11-19T10:42:08.026Z,7.72
2022-11-19T10:44:42.371Z,7.70
2022-11-19T10:47:08.757Z,6.97
2022-11-19T10:49:39.263Z,7.55
2022-11-19T10:52:09.444Z,6.90
2022-11-19T10:54:37.367Z,7.25
2022-11-19T10:57:04.026Z,7.80
2022-11-19T10:59:32.805Z,7.20
2022-11-19T11:02:03.176Z,6.47
2022-11-19T11:04:30.143Z,7.07
2022-11-19T11:07:01.408Z,6.68
2022-11-19T11:09:42.326Z,6.70
2022-11-19T11:12:40.766Z,7.13
2022-11-19T11:15:21.416Z,6.35
2022-11-19T11:17:49.387Z,7.25
2022-11-19T11:20:15.898Z,6.70
2022-11-19T11:22:43.478Z,5.50
2022-11-19T11:25:20.670Z,5.10
2022-11-19T11:28:04.634Z,5.65
2022-11-19T11:32:57.677Z,6.75
2022-11-19T11:35:34.231Z,6.80
2022-11-19T11:38:01.638Z,7.10
2022-11-19T11:40:29.215Z,7.80
2022-11-19T11:42:56.114Z,6.97
2022-11-19T11:45:33.579Z,6.50
2022-11-19T11:48:18.005Z,6.22
2022-11-19T11:50:45.723Z,5.60
2022-11-19T11:53:15.347Z,5.35
2022-11-19T11:55:41.951Z,6.55
2022-11-19T11:58:26.767Z,6.35
2022-11-19T12:00:55.836Z,6.45
2022-11-19T12:03:22.676Z,5.95
2022-11-19T12:06:11.598Z,5.53
2022-11-19T12:09:01.814Z,7.10
2022-11-19T12:11:56.101Z,7.13
2022-11-19T12:17:39.971Z,5.80
2022-11-19T12:20:13.567Z,5.75
2022-11-19T12:22:49.286Z,7.38
2022-11-19T12:25:30.744Z,5.50
2022-11-19T12:28:31.251Z,6.22
2022-11-19T12:31:19.486Z,5.65
2022-11-19T12:34:04.686Z,6.30
2022-11-19T12:36:59.091Z,5.90
2022-11-19T12:39:54.156Z,6.80
2022-11-19T12:42:31.246Z,5.70
2022-11-19T12:45:30.486Z,5.88
2022-11-19T12:48:29.976Z,6.10
2022-11-19T12:51:28.664Z,6.07
2022-11-19T12:54:15.774Z,5.75
2022-11-19T12:56:53.230Z,5.60
2022-11-19T12:59:34.961Z,5.75
2022-11-19T13:02:03.715Z,5.40
2022-11-19T13:04:37.210Z,5.40
2022-11-19T13:07:12.375Z,6.07
2022-11-19T13:09:44.091Z,5.65
2022-11-19T13:12:16.775Z,5.80
2022-11-19T13:14:55.259Z,5.68
2022-11-19T13:17:33.765Z,6.20
2022-11-19T13:20:24.768Z,6.15
2022-11-19T13:22:54.432Z,4.85
2022-11-19T13:25:24.012Z,6.03
2022-11-19T13:27:52.508Z,5.38
2022-11-19T13:30:26.621Z,5.93
2022-11-19T13:33:00.991Z,5.93
2022-11-19T13:35:47.425Z,5.95
2022-11-19T13:38:44.392Z,6.00
2022-11-19T13:41:15.135Z,5.20
2022-11-19T13:44:00.734Z,5.55
2022-11-19T13:46:43.400Z,6.05
2022-11-19T13:49:14.306Z,5.95
2022-11-19T13:51:44.877Z,5.18
2022-11-19T13:54:27.583Z,5.15
2022-11-19T13:56:56.765Z,5.70
2022-11-19T13:59:35.013Z,4.90
2022-11-19T14:02:30.476Z,5.45
2022-11-19T14:05:40.978Z,5.40
2022-11-19T14:08:22.816Z,5.20
2022-11-19T14:10:49.248Z,4.55
2022-11-19T14:13:24.753Z,4.78
2022-11-19T14:16:26.739Z,4.22
2022-11-19T14:19:16.371Z,4.90
2022-11-19T14:22:04.176Z,4.55
2022-11-19T14:24:49.294Z,4.65
2022-11-19T14:27:29.235Z,4.15
2022-11-19T14:29:58.363Z,4.20
2022-11-19T14:32:36.062Z,4.53
2022-11-19T14:35:02.761Z,4.60
2022-11-19T14:37:40.942Z,4.70
2022-11-19T14:40:13.336Z,5.00
2022-11-19T14:43:37.391Z,4.65
2022-11-19T14:46:09.038Z,4.80
2022-11-19T14:48:48.821Z,5.45
2022-11-19T14:51:35.030Z,4.88
2022-11-19T14:54:13.774Z,5.35
2022-11-19T14:56:41.107Z,4.30
2022-11-19T14:59:20.446Z,4.57
2022-11-19T15:02:23.690Z,4.97
2022-11-19T15:04:51.649Z,4.55
2022-11-19T15:07:33.169Z,5.68
2022-11-19T15:10:10.727Z,5.15
2022-11-19T15:12:43.478Z,5.18
2022-11-19T15:15:19.104Z,5.05
2022-11-19T15:18:02.352Z,4.75
2022-11-19T15:20:40.885Z,4.82
2022-11-19T15:23:35.038Z,5.20
2022-11-19T15:26:24.697Z,4.65
2022-11-19T15:29:09.907Z,5.10
2022-11-19T15:31:47.684Z,5.60
2022-11-19T15:37:51.436Z,5.88
2022-11-19T15:40:36.910Z,5.65
2022-11-19T15:43:21.641Z,5.63
2022-11-19T15:45:56.510Z,6.40
2022-11-19T15:49:04.493Z,5.90
2022-11-19T15:51:37.945Z,7.13
2022-11-19T15:54:11.471Z,6.70
2022-11-19T15:56:39.965Z,7.00
2022-11-19T15:59:07.671Z,6.47
2022-11-19T16:01:34.945Z,7.20
2022-11-19T16:04:10.393Z,7.13
2022-11-19T16:06:39.552Z,8.68
2022-11-19T16:09:06.108Z,9.82
2022-11-19T16:11:55.344Z,9.65
2022-11-19T16:14:43.226Z,8.82
2022-11-19T16:17:33.433Z,7.93
2022-11-19T16:20:11.560Z,7.85
2022-11-19T16:22:48.447Z,8.35
2022-11-19T16:25:19.088Z,7.65
2022-11-19T16:27:46.005Z,7.22
2022-11-19T16:30:21.250Z,7.22
2022-11-19T16:32:48.345Z,8.23
2022-11-19T16:35:24.531Z,8.70
2022-11-19T16:37:52.760Z,8.75
2022-11-19T16:40:19.458Z,8.18
2022-11-19T16:42:59.708Z,7.70
2022-11-19T16:45:28.529Z,8.88
2022-11-19T16:47:57.194Z,8.18
2022-11-19T16:50:36.390Z,7.78
2022-11-19T16:53:05.539Z,7.85
2022-11-19T16:55:33.926Z,7.22
2022-11-19T16:58:09.557Z,8.15
2022-11-19T17:00:37.158Z,7.63
2022-11-19T17:03:29.533Z,7.47
2022-11-19T17:05:56.927Z,8.20
2022-11-19T17:08:29.723Z,8.05
2022-11-19T17:11:34.816Z,7.97
2022-11-19T17:14:26.018Z,8.43
2022-11-19T17:16:53.632Z,9.85
2022-11-19T17:19:29.319Z,9.30
2022-11-19T17:22:01.495Z,11.20
2022-11-19T17:24:33.804Z,11.30
2022-11-19T17:27:00.342Z,10.90
2022-11-19T17:29:27.430Z,11.45
2022-11-19T17:31:55.141Z,10.35
2022-11-19T17:34:25.394Z,11.40
2022-11-19T17:36:51.894Z,12.65
2022-11-19T17:39:23.962Z,12.48
2022-11-19T17:42:14.781Z,13.30
2022-11-19T17:44:41.404Z,12.65
2022-11-19T17:47:23.568Z,12.40
2022-11-19T17:49:51.294Z,12.07
2022-11-19T17:52:31.460Z,13.10
2022-11-19T17:55:04.103Z,12.75
2022-11-19T17:57:31.118Z,13.90
2022-11-19T17:59:57.649Z,16.55
2022-11-19T18:02:24.234Z,16.60
2022-11-19T18:04:50.851Z,19.02
2022-11-19T18:07:17.395Z,19.48
2022-11-19T18:09:44.822Z,18.45
2022-11-19T18:12:14.750Z,14.20
2022-11-19T18:14:41.846Z,14.48
2022-11-19T18:17:12.594Z,18.35
2022-11-19T18:19:39.287Z,15.75
2022-11-19T18:22:06.245Z,15.48
2022-11-19T18:24:32.950Z,15.18
2022-11-19T18:26:59.538Z,22.38
2022-11-19T18:29:30.857Z,37.58
2022-11-19T18:31:57.402Z,35.67
2022-11-19T18:34:24.125Z,27.30
2022-11-19T18:36:50.855Z,21.77
2022-11-19T18:39:17.381Z,17.90
2022-11-19T18:41:44.009Z,14.98
2022-11-19T18:44:31.542Z,15.23
2022-11-19T18:46:58.387Z,14.90
2022-11-19T18:49:25.164Z,14.93
2022-11-19T18:51:52.216Z,17.65
2022-11-19T18:54:18.908Z,18.20
2022-11-19T18:56:45.572Z,24.15
2022-11-19T18:59:12.741Z,17.23
2022-11-19T19:01:39.326Z,52.30
2022-11-19T19:04:06.483Z,34.78
2022-11-19T19:06:33.113Z,20.85
2022-11-19T19:08:59.799Z,21.52
2022-11-19T19:11:45.070Z,19.92
2022-11-19T19:14:11.578Z,32.97
2022-11-19T19:16:38.095Z,29.98
2022-11-19T19:19:04.642Z,22.27
2022-11-19T19:21:31.335Z,21.42
2022-11-19T19:23:57.837Z,31.17
2022-11-19T19:26:24.426Z,32.78
2022-11-19T19:28:52.786Z,24.52
2022-11-19T19:31:32.409Z,18.55
2022-11-19T19:33:58.963Z,18.85
2022-11-19T19:36:25.542Z,22.10
2022-11-19T19:38:52.069Z,27.23
2022-11-19T19:41:23.779Z,34.58
2022-11-19T19:43:50.352Z,30.55
2022-11-19T19:46:18.302Z,30.75
2022-11-19T19:48:46.743Z,27.90
2022-11-19T19:51:14.569Z,24.60
2022-11-19T19:53:44.005Z,24.30
2022-11-19T19:56:12.105Z,23.70
2022-11-19T19:58:39.047Z,23.38
2022-11-19T20:01:13.596Z,21.38
2022-11-19T20:03:40.174Z,18.27
2022-11-19T20:06:08.211Z,17.25
2022-11-19T20:08:35.288Z,16.00
2022-11-19T20:11:04.167Z,16.30
2022-11-19T20:13:32.148Z,17.58
2022-11-19T20:16:04.729Z,17.15
2022-11-19T20:18:32.858Z,17.13
2022-11-19T20:21:00.538Z,15.68
2022-11-19T20:23:30.435Z,14.27
2022-11-19T20:26:02.246Z,13.43
2022-11-19T20:28:29.260Z,12.63
2022-11-19T20:31:21.366Z,12.18
2022-11-19T20:33:51.875Z,12.45
2022-11-19T20:36:18.372Z,11.55
2022-11-19T20:38:48.239Z,11.45
2022-11-19T20:41:35.433Z,11.13
2022-11-19T20:44:21.546Z,11.35
2022-11-19T20:46:51.013Z,11.77
2022-11-19T20:49:19.509Z,12.30
2022-11-19T20:51:47.011Z,15.25
2022-11-19T20:54:13.774Z,19.67
2022-11-19T20:56:40.819Z,19.48
2022-11-19T20:59:07.934Z,21.02
2022-11-19T21:01:35.531Z,19.08
2022-11-19T21:04:02.279Z,19.20
2022-11-19T21:06:28.781Z,18.85
2022-11-19T21:08:56.177Z,20.08
2022-11-19T21:11:22.736Z,17.63
2022-11-19T21:13:49.251Z,16.67
2022-11-19T21:16:18.641Z,16.45
2022-11-19T21:18:45.599Z,15.48
2022-11-19T21:21:13.883Z,16.92
2022-11-19T21:23:40.962Z,16.40
2022-11-19T21:26:16.745Z,15.18
2022-11-19T21:28:47.685Z,16.23
2022-11-19T21:31:16.339Z,14.93
2022-11-19T21:33:42.988Z,13.73
2022-11-19T21:36:10.039Z,12.73
2022-11-19T21:38:36.561Z,11.13
2022-11-19T21:41:03.917Z,10.90
2022-11-19T21:43:30.587Z,11.50
2022-11-19T21:45:57.529Z,12.02
2022-11-19T21:48:24.962Z,14.65
2022-11-19T21:50:52.421Z,15.52
2022-11-19T21:53:19.292Z,14.02
2022-11-19T21:55:46.216Z,12.32
2022-11-19T21:58:13.883Z,11.18
2022-11-19T22:00:40.887Z,10.93
2022-11-19T22:03:07.758Z,11.02
2022-11-19T22:05:34.899Z,10.88
2022-11-19T22:08:02.197Z,10.70
2022-11-19T22:10:29.597Z,11.70
2022-11-19T22:12:59.282Z,10.52
2022-11-19T22:15:26.599Z,11.27
2022-11-19T22:17:53.597Z,11.40
2022-11-19T22:20:20.159Z,13.80
2022-11-19T22:22:46.722Z,13.43
2022-11-19T22:25:13.804Z,14.85
2022-11-19T22:27:41.603Z,14.68
2022-11-19T22:30:10.059Z,14.07
2022-11-19T22:32:36.727Z,13.82
2022-11-19T22:35:04.035Z,12.45
2022-11-19T22:37:30.642Z,12.18
2022-11-19T22:39:57.229Z,14.27
2022-11-19T22:42:23.760Z,11.95
2022-11-19T22:44:51.438Z,13.18
2022-11-19T22:47:17.968Z,14.10
2022-11-19T22:49:44.517Z,14.18
2022-11-19T22:52:11.082Z,14.27
2022-11-19T22:54:41.596Z,13.90
2022-11-19T22:57:08.542Z,15.23
2022-11-19T22:59:35.355Z,14.50
2022-11-19T23:02:01.938Z,13.70
2022-11-19T23:04:29.228Z,13.32
2022-11-19T23:06:56.047Z,13.98
2022-11-19T23:09:23.097Z,13.02
2022-11-19T23:12:08.376Z,13.00
2022-11-19T23:14:35.063Z,13.48
2022-11-19T23:17:01.565Z,12.68
2022-11-19T23:19:28.141Z,12.95
2022-11-19T23:21:54.624Z,12.43
2022-11-19T23:24:21.209Z,12.90
2022-11-19T23:26:47.762Z,14.07
2022-11-19T23:29:14.386Z,14.70
2022-11-19T23:31:41.007Z,13.73
2022-11-19T23:34:07.870Z,13.75
2022-11-19T23:36:39.085Z,13.60
2022-11-19T23:39:06.672Z,13.10
2022-11-19T23:41:33.957Z,13.43
2022-11-19T23:44:00.833Z,13.50
2022-11-19T23:46:29.890Z,13.90
2022-11-19T23:48:57.448Z,12.45
2022-11-19T23:51:32.471Z,13.13
2022-11-19T23:53:59.183Z,13.13
2022-11-19T23:56:26.567Z,12.65
2022-11-19T23:58:53.278Z,13.32
